sensor_id;sensor_type;location;lat;lon;timestamp;P1;durP1;ratioP1;P2;durP2;ratioP2
20709;SDS011;10516;51.518;9.864;2022-10-16T00:00:34;2.03;;;1.92;;
20709;SDS011;10516;51.518;9.864;2022-10-16T00:03:01;2.40;;;2.20;;
20709;SDS011;10516;51.518;9.864;2022-10-16T00:05:27;2.10;;;2.00;;
20709;SDS011;10516;51.518;9.864;2022-10-16T00:07:53;2.47;;;2.28;;
20709;SDS011;10516;51.518;9.864;2022-10-16T00:10:18;4.82;;;2.53;;
20709;SDS011;10516;51.518;9.864;2022-10-16T00:12:44;4.13;;;2.20;;
20709;SDS011;10516;51.518;9.864;2022-10-16T00:15:09;2.38;;;2.15;;
20709;SDS011;10516;51.518;9.864;2022-10-16T00:17:34;2.60;;;2.40;;
20709;SDS011;10516;51.518;9.864;2022-10-16T00:20:00;2.95;;;2.75;;
20709;SDS011;10516;51.518;9.864;2022-10-16T00:22:27;3.22;;;2.20;;
20709;SDS011;10516;51.518;9.864;2022-10-16T00:24:53;2.40;;;2.20;;
20709;SDS011;10516;51.518;9.864;2022-10-16T00:27:18;3.67;;;2.58;;
20709;SDS011;10516;51.518;9.864;2022-10-16T00:29:44;2.90;;;2.30;;
20709;SDS011;10516;51.518;9.864;2022-10-16T00:32:09;2.70;;;2.50;;
20709;SDS011;10516;51.518;9.864;2022-10-16T00:34:36;3.80;;;2.72;;
20709;SDS011;10516;51.518;9.864;2022-10-16T00:37:02;2.90;;;2.58;;
20709;SDS011;10516;51.518;9.864;2022-10-16T00:39:27;2.78;;;2.58;;
20709;SDS011;10516;51.518;9.864;2022-10-16T00:41:53;3.17;;;2.33;;
20709;SDS011;10516;51.518;9.864;2022-10-16T00:47:32;4.60;;;2.42;;
20709;SDS011;10516;51.518;9.864;2022-10-16T00:50:06;2.72;;;2.40;;
20709;SDS011;10516;51.518;9.864;2022-10-16T00:52:44;3.15;;;1.98;;
20709;SDS011;10516;51.518;9.864;2022-10-16T00:55:12;3.55;;;2.20;;
20709;SDS011;10516;51.518;9.864;2022-10-16T00:57:38;2.90;;;2.28;;
20709;SDS011;10516;51.518;9.864;2022-10-16T01:00:06;16.00;;;3.22;;
20709;SDS011;10516;51.518;9.864;2022-10-16T01:02:33;2.50;;;2.30;;
20709;SDS011;10516;51.518;9.864;2022-10-16T01:04:59;2.67;;;2.47;;
20709;SDS011;10516;51.518;9.864;2022-10-16T01:07:27;2.35;;;2.05;;
20709;SDS011;10516;51.518;9.864;2022-10-16T01:12:59;2.63;;;2.42;;
20709;SDS011;10516;51.518;9.864;2022-10-16T01:15:30;3.13;;;2.22;;
20709;SDS011;10516;51.518;9.864;2022-10-16T01:18:23;5.20;;;3.03;;
20709;SDS011;10516;51.518;9.864;2022-10-16T01:21:13;2.50;;;2.30;;
20709;SDS011;10516;51.518;9.864;2022-10-16T01:29:31;2.70;;;2.50;;
20709;SDS011;10516;51.518;9.864;2022-10-16T01:32:06;2.45;;;2.25;;
20709;SDS011;10516;51.518;9.864;2022-10-16T01:34:58;6.63;;;2.60;;
20709;SDS011;10516;51.518;9.864;2022-10-16T01:37:40;4.43;;;3.03;;
20709;SDS011;10516;51.518;9.864;2022-10-16T01:40:13;3.78;;;2.17;;
20709;SDS011;10516;51.518;9.864;2022-10-16T01:42:42;2.55;;;2.35;;
20709;SDS011;10516;51.518;9.864;2022-10-16T01:45:13;3.08;;;2.10;;
20709;SDS011;10516;51.518;9.864;2022-10-16T01:47:43;5.07;;;2.95;;
20709;SDS011;10516;51.518;9.864;2022-10-16T01:50:09;2.70;;;2.50;;
20709;SDS011;10516;51.518;9.864;2022-10-16T01:52:37;2.70;;;2.50;;
20709;SDS011;10516;51.518;9.864;2022-10-16T01:55:05;2.65;;;2.22;;
20709;SDS011;10516;51.518;9.864;2022-10-16T01:57:34;3.13;;;2.83;;
20709;SDS011;10516;51.518;9.864;2022-10-16T02:00:05;2.72;;;2.47;;
20709;SDS011;10516;51.518;9.864;2022-10-16T02:02:33;3.10;;;2.47;;
20709;SDS011;10516;51.518;9.864;2022-10-16T02:05:02;2.95;;;2.20;;
20709;SDS011;10516;51.518;9.864;2022-10-16T02:07:35;2.30;;;2.10;;
20709;SDS011;10516;51.518;9.864;2022-10-16T02:10:01;3.25;;;3.05;;
20709;SDS011;10516;51.518;9.864;2022-10-16T02:12:28;7.82;;;2.50;;
20709;SDS011;10516;51.518;9.864;2022-10-16T02:14:57;5.72;;;2.53;;
20709;SDS011;10516;51.518;9.864;2022-10-16T02:17:22;4.13;;;3.00;;
20709;SDS011;10516;51.518;9.864;2022-10-16T02:19:49;2.65;;;2.45;;
20709;SDS011;10516;51.518;9.864;2022-10-16T02:22:28;2.95;;;2.50;;
20709;SDS011;10516;51.518;9.864;2022-10-16T02:25:10;3.17;;;2.22;;
20709;SDS011;10516;51.518;9.864;2022-10-16T02:27:44;3.35;;;2.70;;
20709;SDS011;10516;51.518;9.864;2022-10-16T02:30:25;2.70;;;2.50;;
20709;SDS011;10516;51.518;9.864;2022-10-16T02:32:58;4.20;;;2.58;;
20709;SDS011;10516;51.518;9.864;2022-10-16T02:35:29;3.45;;;2.70;;
20709;SDS011;10516;51.518;9.864;2022-10-16T02:37:56;2.78;;;2.55;;
20709;SDS011;10516;51.518;9.864;2022-10-16T02:40:22;2.63;;;2.42;;
20709;SDS011;10516;51.518;9.864;2022-10-16T02:42:50;3.03;;;2.20;;
20709;SDS011;10516;51.518;9.864;2022-10-16T02:45:17;3.78;;;3.28;;
20709;SDS011;10516;51.518;9.864;2022-10-16T02:47:43;1.98;;;1.88;;
20709;SDS011;10516;51.518;9.864;2022-10-16T02:50:08;2.40;;;2.20;;
20709;SDS011;10516;51.518;9.864;2022-10-16T02:52:34;3.53;;;2.25;;
20709;SDS011;10516;51.518;9.864;2022-10-16T02:54:59;6.40;;;2.60;;
20709;SDS011;10516;51.518;9.864;2022-10-16T02:57:25;2.40;;;2.20;;
20709;SDS011;10516;51.518;9.864;2022-10-16T02:59:50;4.38;;;2.10;;
20709;SDS011;10516;51.518;9.864;2022-10-16T03:02:16;4.68;;;2.22;;
20709;SDS011;10516;51.518;9.864;2022-10-16T03:04:41;4.40;;;3.13;;
20709;SDS011;10516;51.518;9.864;2022-10-16T03:07:06;2.95;;;2.30;;
20709;SDS011;10516;51.518;9.864;2022-10-16T03:09:32;2.05;;;1.95;;
20709;SDS011;10516;51.518;9.864;2022-10-16T03:11:58;2.85;;;1.80;;
20709;SDS011;10516;51.518;9.864;2022-10-16T03:14:23;3.17;;;1.95;;
20709;SDS011;10516;51.518;9.864;2022-10-16T03:16:48;1.70;;;1.60;;
20709;SDS011;10516;51.518;9.864;2022-10-16T03:19:15;2.08;;;1.98;;
20709;SDS011;10516;51.518;9.864;2022-10-16T03:21:41;2.47;;;2.30;;
20709;SDS011;10516;51.518;9.864;2022-10-16T03:24:06;3.78;;;2.65;;
20709;SDS011;10516;51.518;9.864;2022-10-16T03:26:32;2.78;;;2.58;;
20709;SDS011;10516;51.518;9.864;2022-10-16T03:28:57;2.28;;;2.08;;
20709;SDS011;10516;51.518;9.864;2022-10-16T03:31:22;2.40;;;2.20;;
20709;SDS011;10516;51.518;9.864;2022-10-16T03:33:48;2.92;;;2.65;;
20709;SDS011;10516;51.518;9.864;2022-10-16T03:36:13;2.97;;;2.40;;
20709;SDS011;10516;51.518;9.864;2022-10-16T03:38:38;1.80;;;1.70;;
20709;SDS011;10516;51.518;9.864;2022-10-16T03:41:04;2.53;;;2.10;;
20709;SDS011;10516;51.518;9.864;2022-10-16T03:43:29;2.97;;;2.10;;
20709;SDS011;10516;51.518;9.864;2022-10-16T03:45:55;2.63;;;2.40;;
20709;SDS011;10516;51.518;9.864;2022-10-16T03:48:20;8.32;;;3.20;;
20709;SDS011;10516;51.518;9.864;2022-10-16T03:50:46;2.67;;;2.10;;
20709;SDS011;10516;51.518;9.864;2022-10-16T03:53:13;3.50;;;2.42;;
20709;SDS011;10516;51.518;9.864;2022-10-16T03:55:40;2.58;;;2.40;;
20709;SDS011;10516;51.518;9.864;2022-10-16T03:58:07;2.83;;;2.15;;
20709;SDS011;10516;51.518;9.864;2022-10-16T04:00:32;3.90;;;2.72;;
20709;SDS011;10516;51.518;9.864;2022-10-16T04:02:57;3.55;;;3.03;;
20709;SDS011;10516;51.518;9.864;2022-10-16T04:05:23;4.68;;;2.55;;
20709;SDS011;10516;51.518;9.864;2022-10-16T04:07:48;3.40;;;2.75;;
20709;SDS011;10516;51.518;9.864;2022-10-16T04:10:14;3.03;;;2.83;;
20709;SDS011;10516;51.518;9.864;2022-10-16T04:12:39;2.38;;;2.28;;
20709;SDS011;10516;51.518;9.864;2022-10-16T04:15:05;2.67;;;2.47;;
20709;SDS011;10516;51.518;9.864;2022-10-16T04:17:30;3.53;;;2.67;;
20709;SDS011;10516;51.518;9.864;2022-10-16T04:19:56;2.88;;;2.67;;
20709;SDS011;10516;51.518;9.864;2022-10-16T04:22:21;2.75;;;2.55;;
20709;SDS011;10516;51.518;9.864;2022-10-16T04:24:46;2.72;;;2.53;;
20709;SDS011;10516;51.518;9.864;2022-10-16T04:27:12;3.33;;;2.60;;
20709;SDS011;10516;51.518;9.864;2022-10-16T04:29:37;3.00;;;2.65;;
20709;SDS011;10516;51.518;9.864;2022-10-16T04:32:02;5.30;;;3.25;;
20709;SDS011;10516;51.518;9.864;2022-10-16T04:34:28;3.03;;;2.80;;
20709;SDS011;10516;51.518;9.864;2022-10-16T04:36:53;3.80;;;2.88;;
20709;SDS011;10516;51.518;9.864;2022-10-16T04:39:19;5.13;;;3.00;;
20709;SDS011;10516;51.518;9.864;2022-10-16T04:41:44;3.50;;;2.50;;
20709;SDS011;10516;51.518;9.864;2022-10-16T04:44:09;2.95;;;2.50;;
20709;SDS011;10516;51.518;9.864;2022-10-16T04:46:35;3.30;;;3.00;;
20709;SDS011;10516;51.518;9.864;2022-10-16T04:49:00;3.10;;;2.72;;
20709;SDS011;10516;51.518;9.864;2022-10-16T04:51:26;3.63;;;2.80;;
20709;SDS011;10516;51.518;9.864;2022-10-16T04:53:52;3.85;;;3.55;;
20709;SDS011;10516;51.518;9.864;2022-10-16T04:56:18;4.57;;;3.53;;
20709;SDS011;10516;51.518;9.864;2022-10-16T04:58:43;4.10;;;2.83;;
20709;SDS011;10516;51.518;9.864;2022-10-16T05:01:09;3.50;;;3.20;;
20709;SDS011;10516;51.518;9.864;2022-10-16T05:03:34;2.67;;;2.47;;
20709;SDS011;10516;51.518;9.864;2022-10-16T05:05:59;2.75;;;2.55;;
20709;SDS011;10516;51.518;9.864;2022-10-16T05:08:25;7.18;;;3.03;;
20709;SDS011;10516;51.518;9.864;2022-10-16T05:10:50;3.60;;;2.75;;
20709;SDS011;10516;51.518;9.864;2022-10-16T05:13:16;3.75;;;2.40;;
20709;SDS011;10516;51.518;9.864;2022-10-16T05:15:41;4.78;;;2.55;;
20709;SDS011;10516;51.518;9.864;2022-10-16T05:18:06;4.70;;;2.70;;
20709;SDS011;10516;51.518;9.864;2022-10-16T05:20:33;2.85;;;2.53;;
20709;SDS011;10516;51.518;9.864;2022-10-16T05:22:59;2.58;;;2.38;;
20709;SDS011;10516;51.518;9.864;2022-10-16T05:25:24;2.53;;;2.33;;
20709;SDS011;10516;51.518;9.864;2022-10-16T05:27:49;3.30;;;1.90;;
20709;SDS011;10516;51.518;9.864;2022-10-16T05:30:15;3.50;;;2.78;;
20709;SDS011;10516;51.518;9.864;2022-10-16T05:32:45;2.53;;;2.20;;
20709;SDS011;10516;51.518;9.864;2022-10-16T05:35:12;2.15;;;2.00;;
20709;SDS011;10516;51.518;9.864;2022-10-16T05:37:38;2.40;;;2.20;;
20709;SDS011;10516;51.518;9.864;2022-10-16T05:40:03;2.58;;;2.38;;
20709;SDS011;10516;51.518;9.864;2022-10-16T05:42:29;2.47;;;2.28;;
20709;SDS011;10516;51.518;9.864;2022-10-16T05:44:55;3.55;;;2.45;;
20709;SDS011;10516;51.518;9.864;2022-10-16T05:47:23;2.58;;;1.98;;
20709;SDS011;10516;51.518;9.864;2022-10-16T05:49:49;2.10;;;1.90;;
20709;SDS011;10516;51.518;9.864;2022-10-16T05:52:14;3.33;;;1.98;;
20709;SDS011;10516;51.518;9.864;2022-10-16T05:54:39;2.10;;;1.95;;
20709;SDS011;10516;51.518;9.864;2022-10-16T05:57:05;3.15;;;1.73;;
20709;SDS011;10516;51.518;9.864;2022-10-16T05:59:30;3.95;;;2.13;;
20709;SDS011;10516;51.518;9.864;2022-10-16T06:01:56;2.70;;;2.50;;
20709;SDS011;10516;51.518;9.864;2022-10-16T06:04:22;8.25;;;2.83;;
20709;SDS011;10516;51.518;9.864;2022-10-16T06:06:47;2.85;;;2.47;;
20709;SDS011;10516;51.518;9.864;2022-10-16T06:09:12;2.78;;;2.28;;
20709;SDS011;10516;51.518;9.864;2022-10-16T06:11:38;3.75;;;2.78;;
20709;SDS011;10516;51.518;9.864;2022-10-16T06:14:03;2.85;;;2.58;;
20709;SDS011;10516;51.518;9.864;2022-10-16T06:16:32;2.47;;;2.25;;
20709;SDS011;10516;51.518;9.864;2022-10-16T06:18:59;7.00;;;2.88;;
20709;SDS011;10516;51.518;9.864;2022-10-16T06:21:25;3.17;;;2.30;;
20709;SDS011;10516;51.518;9.864;2022-10-16T06:23:51;4.82;;;2.10;;
20709;SDS011;10516;51.518;9.864;2022-10-16T06:26:19;2.30;;;2.10;;
20709;SDS011;10516;51.518;9.864;2022-10-16T06:28:47;4.07;;;2.10;;
20709;SDS011;10516;51.518;9.864;2022-10-16T06:31:12;2.30;;;2.10;;
20709;SDS011;10516;51.518;9.864;2022-10-16T06:33:38;6.15;;;3.97;;
20709;SDS011;10516;51.518;9.864;2022-10-16T06:36:06;2.85;;;2.40;;
20709;SDS011;10516;51.518;9.864;2022-10-16T06:38:34;3.75;;;2.15;;
20709;SDS011;10516;51.518;9.864;2022-10-16T06:41:00;2.08;;;1.90;;
20709;SDS011;10516;51.518;9.864;2022-10-16T06:43:25;4.90;;;2.80;;
20709;SDS011;10516;51.518;9.864;2022-10-16T06:45:56;2.75;;;2.55;;
20709;SDS011;10516;51.518;9.864;2022-10-16T06:48:22;2.55;;;2.40;;
20709;SDS011;10516;51.518;9.864;2022-10-16T06:53:45;5.10;;;2.55;;
20709;SDS011;10516;51.518;9.864;2022-10-16T06:56:24;2.58;;;2.38;;
20709;SDS011;10516;51.518;9.864;2022-10-16T06:58:51;2.85;;;2.55;;
20709;SDS011;10516;51.518;9.864;2022-10-16T07:01:19;2.78;;;2.55;;
20709;SDS011;10516;51.518;9.864;2022-10-16T07:03:46;3.60;;;3.30;;
20709;SDS011;10516;51.518;9.864;2022-10-16T07:06:13;4.47;;;3.13;;
20709;SDS011;10516;51.518;9.864;2022-10-16T07:08:41;2.90;;;2.70;;
20709;SDS011;10516;51.518;9.864;2022-10-16T07:11:08;3.97;;;2.30;;
20709;SDS011;10516;51.518;9.864;2022-10-16T07:13:35;3.67;;;2.90;;
20709;SDS011;10516;51.518;9.864;2022-10-16T07:16:09;4.30;;;2.40;;
20709;SDS011;10516;51.518;9.864;2022-10-16T07:18:38;4.65;;;2.67;;
20709;SDS011;10516;51.518;9.864;2022-10-16T07:21:11;3.88;;;2.70;;
20709;SDS011;10516;51.518;9.864;2022-10-16T07:23:39;4.57;;;2.63;;
20709;SDS011;10516;51.518;9.864;2022-10-16T07:26:04;3.15;;;2.88;;
20709;SDS011;10516;51.518;9.864;2022-10-16T07:28:30;4.03;;;2.60;;
20709;SDS011;10516;51.518;9.864;2022-10-16T07:31:07;3.05;;;2.75;;
20709;SDS011;10516;51.518;9.864;2022-10-16T07:33:36;3.83;;;3.08;;
20709;SDS011;10516;51.518;9.864;2022-10-16T07:36:12;3.80;;;3.22;;
20709;SDS011;10516;51.518;9.864;2022-10-16T07:38:38;4.20;;;3.55;;
20709;SDS011;10516;51.518;9.864;2022-10-16T07:41:04;4.05;;;2.88;;
20709;SDS011;10516;51.518;9.864;2022-10-16T07:43:31;2.70;;;2.50;;
20709;SDS011;10516;51.518;9.864;2022-10-16T07:45:57;2.60;;;2.40;;
20709;SDS011;10516;51.518;9.864;2022-10-16T07:48:24;3.05;;;2.03;;
20709;SDS011;10516;51.518;9.864;2022-10-16T07:50:52;3.05;;;2.40;;
20709;SDS011;10516;51.518;9.864;2022-10-16T07:53:21;2.30;;;1.88;;
20709;SDS011;10516;51.518;9.864;2022-10-16T07:55:47;1.85;;;1.73;;
20709;SDS011;10516;51.518;9.864;2022-10-16T07:58:12;2.45;;;2.25;;
20709;SDS011;10516;51.518;9.864;2022-10-16T08:00:37;3.97;;;2.28;;
20709;SDS011;10516;51.518;9.864;2022-10-16T08:03:03;2.00;;;1.70;;
20709;SDS011;10516;51.518;9.864;2022-10-16T08:05:29;3.88;;;2.13;;
20709;SDS011;10516;51.518;9.864;2022-10-16T08:07:56;2.28;;;2.00;;
20709;SDS011;10516;51.518;9.864;2022-10-16T08:10:22;1.70;;;1.60;;
20709;SDS011;10516;51.518;9.864;2022-10-16T08:12:50;2.83;;;1.77;;
20709;SDS011;10516;51.518;9.864;2022-10-16T08:15:17;1.67;;;1.58;;
20709;SDS011;10516;51.518;9.864;2022-10-16T08:17:42;1.88;;;1.75;;
20709;SDS011;10516;51.518;9.864;2022-10-16T08:20:08;1.80;;;1.70;;
20709;SDS011;10516;51.518;9.864;2022-10-16T08:22:34;3.72;;;1.70;;
20709;SDS011;10516;51.518;9.864;2022-10-16T08:24:59;2.53;;;1.75;;
20709;SDS011;10516;51.518;9.864;2022-10-16T08:27:25;1.85;;;1.75;;
20709;SDS011;10516;51.518;9.864;2022-10-16T08:29:51;1.75;;;1.65;;
20709;SDS011;10516;51.518;9.864;2022-10-16T08:32:16;1.65;;;1.55;;
20709;SDS011;10516;51.518;9.864;2022-10-16T08:34:41;1.58;;;1.48;;
20709;SDS011;10516;51.518;9.864;2022-10-16T08:37:07;4.97;;;1.70;;
20709;SDS011;10516;51.518;9.864;2022-10-16T08:39:37;2.92;;;1.67;;
20709;SDS011;10516;51.518;9.864;2022-10-16T08:49:34;1.55;;;1.45;;
20709;SDS011;10516;51.518;9.864;2022-10-16T08:52:00;3.17;;;1.70;;
20709;SDS011;10516;51.518;9.864;2022-10-16T08:54:29;4.38;;;3.28;;
20709;SDS011;10516;51.518;9.864;2022-10-16T08:59:38;1.50;;;1.38;;
20709;SDS011;10516;51.518;9.864;2022-10-16T09:02:08;2.17;;;1.08;;
20709;SDS011;10516;51.518;9.864;2022-10-16T09:04:55;1.85;;;1.75;;
20709;SDS011;10516;51.518;9.864;2022-10-16T09:10:15;1.40;;;1.30;;
20709;SDS011;10516;51.518;9.864;2022-10-16T09:13:01;1.70;;;1.60;;
20709;SDS011;10516;51.518;9.864;2022-10-16T09:18:21;1.92;;;1.70;;
20709;SDS011;10516;51.518;9.864;2022-10-16T09:23:35;2.60;;;1.17;;
20709;SDS011;10516;51.518;9.864;2022-10-16T09:26:02;2.13;;;1.65;;
20709;SDS011;10516;51.518;9.864;2022-10-16T09:28:28;5.45;;;1.52;;
20709;SDS011;10516;51.518;9.864;2022-10-16T09:30:54;1.67;;;1.58;;
20709;SDS011;10516;51.518;9.864;2022-10-16T09:33:20;2.13;;;1.45;;
20709;SDS011;10516;51.518;9.864;2022-10-16T09:35:50;1.40;;;1.30;;
20709;SDS011;10516;51.518;9.864;2022-10-16T09:41:01;3.40;;;1.38;;
20709;SDS011;10516;51.518;9.864;2022-10-16T09:43:40;2.30;;;1.48;;
20709;SDS011;10516;51.518;9.864;2022-10-16T09:46:24;1.70;;;1.60;;
20709;SDS011;10516;51.518;9.864;2022-10-16T09:48:56;8.60;;;1.70;;
20709;SDS011;10516;51.518;9.864;2022-10-16T09:51:27;2.53;;;1.55;;
20709;SDS011;10516;51.518;9.864;2022-10-16T09:54:01;1.98;;;1.45;;
20709;SDS011;10516;51.518;9.864;2022-10-16T09:56:34;1.48;;;1.30;;
20709;SDS011;10516;51.518;9.864;2022-10-16T09:59:03;4.82;;;2.08;;
20709;SDS011;10516;51.518;9.864;2022-10-16T10:01:41;2.85;;;1.60;;
20709;SDS011;10516;51.518;9.864;2022-10-16T10:04:10;1.73;;;1.63;;
20709;SDS011;10516;51.518;9.864;2022-10-16T10:06:37;2.85;;;1.45;;
20709;SDS011;10516;51.518;9.864;2022-10-16T10:09:19;1.42;;;1.30;;
20709;SDS011;10516;51.518;9.864;2022-10-16T10:11:48;1.60;;;1.50;;
20709;SDS011;10516;51.518;9.864;2022-10-16T10:16:42;3.03;;;1.58;;
20709;SDS011;10516;51.518;9.864;2022-10-16T10:19:13;1.95;;;1.42;;
20709;SDS011;10516;51.518;9.864;2022-10-16T10:21:41;1.60;;;1.50;;
20709;SDS011;10516;51.518;9.864;2022-10-16T10:24:10;2.15;;;1.33;;
20709;SDS011;10516;51.518;9.864;2022-10-16T10:26:41;2.30;;;1.38;;
20709;SDS011;10516;51.518;9.864;2022-10-16T10:37:19;1.52;;;1.42;;
20709;SDS011;10516;51.518;9.864;2022-10-16T10:39:57;1.75;;;1.60;;
20709;SDS011;10516;51.518;9.864;2022-10-16T10:42:51;2.38;;;1.27;;
20709;SDS011;10516;51.518;9.864;2022-10-16T10:45:22;1.90;;;1.60;;
20709;SDS011;10516;51.518;9.864;2022-10-16T10:51:01;2.50;;;1.42;;
20709;SDS011;10516;51.518;9.864;2022-10-16T10:53:56;2.00;;;1.35;;
20709;SDS011;10516;51.518;9.864;2022-10-16T10:56:55;4.68;;;1.70;;
20709;SDS011;10516;51.518;9.864;2022-10-16T11:07:51;1.42;;;1.20;;
20709;SDS011;10516;51.518;9.864;2022-10-16T11:10:27;1.10;;;1.10;;
20709;SDS011;10516;51.518;9.864;2022-10-16T11:16:10;1.45;;;1.30;;
20709;SDS011;10516;51.518;9.864;2022-10-16T11:22:00;3.30;;;1.45;;
20709;SDS011;10516;51.518;9.864;2022-10-16T11:27:14;3.58;;;1.35;;
20709;SDS011;10516;51.518;9.864;2022-10-16T11:29:53;1.08;;;1.08;;
20709;SDS011;10516;51.518;9.864;2022-10-16T11:32:25;1.27;;;1.20;;
20709;SDS011;10516;51.518;9.864;2022-10-16T11:35:02;2.58;;;1.20;;
20709;SDS011;10516;51.518;9.864;2022-10-16T11:37:38;1.30;;;1.05;;
20709;SDS011;10516;51.518;9.864;2022-10-16T11:40:31;4.78;;;1.40;;
20709;SDS011;10516;51.518;9.864;2022-10-16T11:43:01;1.60;;;1.15;;
20709;SDS011;10516;51.518;9.864;2022-10-16T11:45:40;5.15;;;1.77;;
20709;SDS011;10516;51.518;9.864;2022-10-16T11:51:19;1.38;;;1.05;;
20709;SDS011;10516;51.518;9.864;2022-10-16T11:54:14;7.57;;;1.58;;
20709;SDS011;10516;51.518;9.864;2022-10-16T11:56:51;2.97;;;1.02;;
20709;SDS011;10516;51.518;9.864;2022-10-16T12:02:32;2.83;;;1.00;;
20709;SDS011;10516;51.518;9.864;2022-10-16T12:05:52;2.00;;;1.00;;
20709;SDS011;10516;51.518;9.864;2022-10-16T12:08:08;1.75;;;1.02;;
20709;SDS011;10516;51.518;9.864;2022-10-16T12:13:04;1.00;;;1.00;;
20709;SDS011;10516;51.518;9.864;2022-10-16T12:15:50;0.70;;;0.70;;
20709;SDS011;10516;51.518;9.864;2022-10-16T12:18:22;2.30;;;0.70;;
20709;SDS011;10516;51.518;9.864;2022-10-16T12:20:59;2.10;;;0.93;;
20709;SDS011;10516;51.518;9.864;2022-10-16T12:23:30;5.63;;;1.00;;
20709;SDS011;10516;51.518;9.864;2022-10-16T12:25:58;3.53;;;0.95;;
20709;SDS011;10516;51.518;9.864;2022-10-16T12:28:27;0.75;;;0.75;;
20709;SDS011;10516;51.518;9.864;2022-10-16T12:31:01;2.42;;;1.00;;
20709;SDS011;10516;51.518;9.864;2022-10-16T12:36:00;9.00;;;1.17;;
20709;SDS011;10516;51.518;9.864;2022-10-16T12:38:37;4.65;;;0.73;;
20709;SDS011;10516;51.518;9.864;2022-10-16T12:41:10;1.58;;;0.70;;
20709;SDS011;10516;51.518;9.864;2022-10-16T12:43:47;0.85;;;0.60;;
20709;SDS011;10516;51.518;9.864;2022-10-16T12:46:21;3.70;;;0.82;;
20709;SDS011;10516;51.518;9.864;2022-10-16T12:48:46;2.05;;;0.70;;
20709;SDS011;10516;51.518;9.864;2022-10-16T12:51:24;0.47;;;0.47;;
20709;SDS011;10516;51.518;9.864;2022-10-16T12:56:44;4.20;;;0.80;;
20709;SDS011;10516;51.518;9.864;2022-10-16T13:04:51;1.25;;;0.85;;
20709;SDS011;10516;51.518;9.864;2022-10-16T13:18:33;2.25;;;0.60;;
20709;SDS011;10516;51.518;9.864;2022-10-16T13:21:25;2.35;;;0.90;;
20709;SDS011;10516;51.518;9.864;2022-10-16T13:29:31;0.52;;;0.52;;
20709;SDS011;10516;51.518;9.864;2022-10-16T13:31:59;0.85;;;0.85;;
20709;SDS011;10516;51.518;9.864;2022-10-16T13:34:27;1.77;;;0.80;;
20709;SDS011;10516;51.518;9.864;2022-10-16T13:36:53;0.77;;;0.63;;
20709;SDS011;10516;51.518;9.864;2022-10-16T13:39:29;2.22;;;0.70;;
20709;SDS011;10516;51.518;9.864;2022-10-16T13:44:26;0.93;;;0.80;;
20709;SDS011;10516;51.518;9.864;2022-10-16T13:47:01;2.15;;;0.95;;
20709;SDS011;10516;51.518;9.864;2022-10-16T13:49:27;1.42;;;1.33;;
20709;SDS011;10516;51.518;9.864;2022-10-16T13:51:53;0.95;;;0.80;;
20709;SDS011;10516;51.518;9.864;2022-10-16T13:54:23;1.45;;;0.80;;
20709;SDS011;10516;51.518;9.864;2022-10-16T13:56:50;3.50;;;0.75;;
20709;SDS011;10516;51.518;9.864;2022-10-16T13:59:34;1.25;;;1.08;;
20709;SDS011;10516;51.518;9.864;2022-10-16T14:02:05;3.60;;;0.90;;
20709;SDS011;10516;51.518;9.864;2022-10-16T14:04:43;1.55;;;0.90;;
20709;SDS011;10516;51.518;9.864;2022-10-16T14:07:17;2.22;;;0.80;;
20709;SDS011;10516;51.518;9.864;2022-10-16T14:09:48;2.97;;;1.20;;
20709;SDS011;10516;51.518;9.864;2022-10-16T14:12:15;2.17;;;0.70;;
20709;SDS011;10516;51.518;9.864;2022-10-16T14:14:51;1.25;;;1.00;;
20709;SDS011;10516;51.518;9.864;2022-10-16T14:17:20;0.38;;;0.38;;
20709;SDS011;10516;51.518;9.864;2022-10-16T14:19:48;1.73;;;0.70;;
20709;SDS011;10516;51.518;9.864;2022-10-16T14:22:36;2.30;;;0.80;;
20709;SDS011;10516;51.518;9.864;2022-10-16T14:27:56;1.38;;;0.90;;
20709;SDS011;10516;51.518;9.864;2022-10-16T14:30:30;2.92;;;1.30;;
20709;SDS011;10516;51.518;9.864;2022-10-16T14:33:06;1.50;;;0.93;;
20709;SDS011;10516;51.518;9.864;2022-10-16T14:35:45;1.10;;;1.05;;
20709;SDS011;10516;51.518;9.864;2022-10-16T14:38:17;2.58;;;0.80;;
20709;SDS011;10516;51.518;9.864;2022-10-16T14:40:46;1.00;;;0.93;;
20709;SDS011;10516;51.518;9.864;2022-10-16T14:43:14;2.05;;;0.88;;
20709;SDS011;10516;51.518;9.864;2022-10-16T14:45:51;0.82;;;0.82;;
20709;SDS011;10516;51.518;9.864;2022-10-16T14:48:18;0.63;;;0.63;;
20709;SDS011;10516;51.518;9.864;2022-10-16T14:50:44;1.45;;;1.02;;
20709;SDS011;10516;51.518;9.864;2022-10-16T14:53:11;1.23;;;0.90;;
20709;SDS011;10516;51.518;9.864;2022-10-16T14:55:37;0.80;;;0.80;;
20709;SDS011;10516;51.518;9.864;2022-10-16T14:58:03;8.23;;;1.40;;
20709;SDS011;10516;51.518;9.864;2022-10-16T15:00:28;12.90;;;8.85;;
20709;SDS011;10516;51.518;9.864;2022-10-16T15:02:54;4.70;;;3.88;;
20709;SDS011;10516;51.518;9.864;2022-10-16T15:05:23;3.95;;;2.28;;
20709;SDS011;10516;51.518;9.864;2022-10-16T15:07:51;7.82;;;3.22;;
20709;SDS011;10516;51.518;9.864;2022-10-16T15:10:21;2.45;;;1.35;;
20709;SDS011;10516;51.518;9.864;2022-10-16T15:12:48;2.20;;;1.70;;
20709;SDS011;10516;51.518;9.864;2022-10-16T15:17:48;1.30;;;1.20;;
20709;SDS011;10516;51.518;9.864;2022-10-16T15:20:26;2.13;;;1.15;;
20709;SDS011;10516;51.518;9.864;2022-10-16T15:22:52;1.27;;;1.17;;
20709;SDS011;10516;51.518;9.864;2022-10-16T15:28:22;1.75;;;1.33;;
20709;SDS011;10516;51.518;9.864;2022-10-16T15:30:49;2.60;;;1.00;;
20709;SDS011;10516;51.518;9.864;2022-10-16T15:33:20;2.55;;;1.30;;
20709;SDS011;10516;51.518;9.864;2022-10-16T15:35:48;2.30;;;2.10;;
20709;SDS011;10516;51.518;9.864;2022-10-16T15:38:16;1.65;;;1.55;;
20709;SDS011;10516;51.518;9.864;2022-10-16T15:40:51;2.13;;;1.92;;
20709;SDS011;10516;51.518;9.864;2022-10-16T15:43:16;2.35;;;2.15;;
20709;SDS011;10516;51.518;9.864;2022-10-16T15:45:43;1.73;;;1.63;;
20709;SDS011;10516;51.518;9.864;2022-10-16T15:48:10;3.30;;;1.70;;
20709;SDS011;10516;51.518;9.864;2022-10-16T15:50:39;3.13;;;1.50;;
20709;SDS011;10516;51.518;9.864;2022-10-16T15:53:05;1.40;;;1.30;;
20709;SDS011;10516;51.518;9.864;2022-10-16T15:55:31;5.10;;;1.40;;
20709;SDS011;10516;51.518;9.864;2022-10-16T15:57:56;2.38;;;1.48;;
20709;SDS011;10516;51.518;9.864;2022-10-16T16:00:21;1.83;;;1.58;;
20709;SDS011;10516;51.518;9.864;2022-10-16T16:02:51;2.88;;;2.13;;
20709;SDS011;10516;51.518;9.864;2022-10-16T16:05:18;6.00;;;4.32;;
20709;SDS011;10516;51.518;9.864;2022-10-16T16:07:44;3.30;;;2.75;;
20709;SDS011;10516;51.518;9.864;2022-10-16T16:10:10;2.78;;;2.17;;
20709;SDS011;10516;51.518;9.864;2022-10-16T16:12:37;2.70;;;2.13;;
20709;SDS011;10516;51.518;9.864;2022-10-16T16:15:03;2.80;;;1.67;;
20709;SDS011;10516;51.518;9.864;2022-10-16T16:17:30;2.78;;;1.88;;
20709;SDS011;10516;51.518;9.864;2022-10-16T16:19:56;2.05;;;1.85;;
20709;SDS011;10516;51.518;9.864;2022-10-16T16:22:22;1.80;;;1.70;;
20709;SDS011;10516;51.518;9.864;2022-10-16T16:24:47;2.17;;;1.60;;
20709;SDS011;10516;51.518;9.864;2022-10-16T16:27:13;1.95;;;1.60;;
20709;SDS011;10516;51.518;9.864;2022-10-16T16:29:39;3.45;;;1.95;;
20709;SDS011;10516;51.518;9.864;2022-10-16T16:32:04;2.05;;;1.33;;
20709;SDS011;10516;51.518;9.864;2022-10-16T16:34:30;1.42;;;0.93;;
20709;SDS011;10516;51.518;9.864;2022-10-16T16:36:55;3.13;;;0.90;;
20709;SDS011;10516;51.518;9.864;2022-10-16T16:39:21;1.63;;;1.52;;
20709;SDS011;10516;51.518;9.864;2022-10-16T16:41:47;2.05;;;1.70;;
20709;SDS011;10516;51.518;9.864;2022-10-16T16:44:13;10.15;;;6.43;;
20709;SDS011;10516;51.518;9.864;2022-10-16T16:46:39;1.80;;;1.70;;
20709;SDS011;10516;51.518;9.864;2022-10-16T16:49:06;5.28;;;1.58;;
20709;SDS011;10516;51.518;9.864;2022-10-16T16:51:31;3.15;;;2.15;;
20709;SDS011;10516;51.518;9.864;2022-10-16T16:53:57;1.85;;;1.63;;